Strona główna
METAR-TAF:

METAR-TAF

Lotnisko :

Port lotniczy Belgrad

Belgrad, Serbia

Szerokość geograficzna: 44-49N, Długość geograficzna: 020-17E, wysokość: 96 m

Aktualna obserwacja pogody

Raport powstał 30 minut temu, godzina 11:30 UTC
Wiatr 10 kt od południowy wschód, zmienny między wschód i południowo-południowy wschód
Temperatura 24°C
Wilgotność 34%
Ciśnienie 1022 hPa
Widzialność 10 km lub więcej
Brak chmur poniżej 1500 m i brak chmur cumulonimbus

METAR: LYBE 161130Z 13010KT 090V150 CAVOK 24/07 Q1022 NOSIG

czas: 14:00 (12:00 UTC)

Prognoza

Raport powstał 1 godzina i 0 minut temu, godzina 11:00 UTC
Prognoza ważna od 16 godzina 12 UTC do 17 godzina 12 UTC
Wiatr 9 kt od południowy wschód
Widzialność 10 km lub więcej
Brak chmur poniżej 1500 m i brak chmur cumulonimbus

TAF: LYBE 161100Z 1612/1712 13009KT CAVOK TX24/1613Z TN09/1705Z

Obserwacja i prognoza pogody dla ponad 4000 lotnisk (raport METAR i TAF).

Dostępne stacje oznaczono żółtymi i czerwonymi punktami na mapie.

Najedź kursorem aby zobaczyć nazwę stacji.

Kliknij aby zobaczyć obserwacje i prognozy pogody.

Aby zmienić mapę: kliknij na zielony przycisk z czarnym krzyżykiem, aby powiększyć; na zielony przycisk z myślnikiem, aby pomniejszyć; na zielone strzałki, aby przejść do map sąsiednich.


METAR-TAF: